Aérodrome :
LOGIN :

S'inscrire | Disclaimer

   EN    FR    IT 

 










Légende :    VFR   VFR Marginal   IFR   IFR Intensif   IFR Très Intensif
Visi : 
Plafond : 
>= 8 km
>= 3000ft
5 à 8 km
1000 à 3000 ft
1500m à 5 km
500 à 1000 ft
800 à 1500m
200 à 500 ft
< 800m
< 200 ft
Symboles :   Orages  Brouillard  Fortes neiges  Fortes précipitations  Vent > 20 kt
SIGMETs :   Divers  Orages  Givrage  Turbulence  Onde Orograph.  Cendres Volcan.







- Altitude de l'aérodrome : 37 ft


EHVL - Vlieland Heliport

DERNIER METAR :
  • 141010Z AUTO 30019KT 9999 SCT017 SCT023 BKN028 20/16 Q1012 WHT

METARs EXPIRÉS :
  • 140955Z AUTO 30020KT 9999 SCT016 BKN031 20/15 Q1012 WHT
  • 140945Z AUTO 30020KT 9999 FEW016 SCT027 BKN032 20/15 Q1012 BLU
  • 140925Z AUTO 30020KT 9999 BKN017 BKN025 BKN030 19/15 Q1011 WHT
  • 140918Z AUTO 30020KT 9999 BKN017 BKN024 BKN033 19/15 Q1011 WHT
  • 140914Z AUTO 30020KT 9999 SCT017 SCT020 BKN025 19/15 Q1011 WHT
  • 140855Z AUTO 30020KT 9999 SCT019 BKN023 BKN033 19/15 Q1011 WHT
  • 140847Z AUTO 30021KT 9999 SCT019 SCT024 BKN028 19/15 Q1011 WHT
  • 140842Z AUTO 30021KT 9999 FEW019 SCT023 BKN032 19/15 Q1011 WHT
  • 140830Z AUTO 31020KT 9999 FEW018 BKN029 BKN034 19/15 Q1011 BLU
  • 140825Z AUTO 30020KT 9999 FEW018 SCT021 BKN031 19/15 Q1011 WHT
  • 140755Z AUTO 31021KT 9999 SCT017 BKN021 BKN029 19/15 Q1010 WHT
  • 140733Z AUTO 31022KT 9999 SCT017 BKN024 BKN028 18/15 Q1010 WHT
  • 140725Z AUTO 31022KT 9999 FEW017 SCT028 18/15 Q1010 BLU
  • 140711Z AUTO 31022KT 9999 BKN017 BKN024 18/15 Q1010 WHT

Prévision TAF périmée.
Pas de NOTAMs connus pour ce terrain.



MET'MAP, la Météo Aéronautique d'un coup d'oeil ! - Copyright ORBIFLY Décembre 2007 - Disclaimer

ORBIFLY MET'MAP TEAM :

Programmation & Développement : Alexandra Zaïnal
Conception & Développement : Baudouin d'Aumeries
Co-Programmation & Développement : Marc-Olivier Méhu
Soutien technique & logistique : Manuel Goepfert

Contact : metmap@orbifly.com




SOURCES & CREDITS :

   NOAA